Time;durP1;ratioP1;P1;durP2;ratioP2;P2;SDS_P1;SDS_P2;PMS_P1;PMS_P2;Temp;Humidity;BMP_temperature;BMP_pressure;BME280_temperature;BME280_humidity;BME280_pressure;Samples;Min_cycle;Max_cycle;Signal;HPM_P1;HPM_P2
2022/07/21 00:01:18;;;;;;;5.53;1.23;;;20.60;90.60;;;;;;4967151;28;20035;-73
2022/07/21 00:03:44;;;;;;;6.43;2.65;;;20.60;90.80;;;;;;4962496;28;20042;-72
2022/07/21 00:06:10;;;;;;;2.08;1.00;;;20.50;90.80;;;;;;4961896;28;20070;-73
2022/07/21 00:08:35;;;;;;;2.53;1.30;;;20.60;90.60;;;;;;4971015;28;20117;-73
2022/07/21 00:11:02;;;;;;;3.20;1.27;;;20.60;90.10;;;;;;4950373;28;20043;-73
2022/07/21 00:13:28;;;;;;;3.03;1.10;;;20.70;89.60;;;;;;4958334;28;20035;-74
2022/07/21 00:15:53;;;;;;;2.83;1.23;;;20.80;88.80;;;;;;4959417;28;20558;-73
2022/07/21 00:18:20;;;;;;;22.17;3.00;;;20.80;88.40;;;;;;4969262;28;20117;-73
2022/07/21 00:20:46;;;;;;;10.52;1.42;;;20.80;88.80;;;;;;4968234;28;20065;-73
2022/07/21 00:23:12;;;;;;;1.85;1.15;;;20.80;89.10;;;;;;4948808;28;20089;-73
2022/07/21 00:25:37;;;;;;;1.67;1.20;;;20.70;88.90;;;;;;4957051;28;20046;-73
2022/07/21 00:28:04;;;;;;;1.88;1.15;;;20.80;88.50;;;;;;4961159;28;20051;-73
2022/07/21 00:30:31;;;;;;;4.05;1.35;;;20.80;89.00;;;;;;4964355;28;20042;-73
2022/07/21 00:32:56;;;;;;;11.15;1.52;;;20.60;90.90;;;;;;4952565;28;20511;-73
2022/07/21 00:35:22;;;;;;;1.15;1.00;;;20.40;91.60;;;;;;4971964;28;20038;-73
2022/07/21 00:37:48;;;;;;;1.45;1.08;;;20.20;91.90;;;;;;4970588;28;20127;-73
2022/07/21 00:40:15;;;;;;;2.03;1.10;;;20.10;92.20;;;;;;4966343;28;20110;-74
2022/07/21 00:42:42;;;;;;;7.20;2.38;;;20.00;92.50;;;;;;4971093;28;20034;-73
2022/07/21 00:45:08;;;;;;;2.85;1.30;;;20.00;92.70;;;;;;4968316;28;20488;-74
2022/07/21 00:47:35;;;;;;;5.82;1.48;;;19.90;92.60;;;;;;4958138;28;20313;-73
2022/07/21 00:50:06;;;;;;;5.72;1.50;;;19.90;92.90;;;;;;4960946;28;20027;-73
2022/07/21 00:52:32;;;;;;;4.90;1.60;;;19.60;93.40;;;;;;4951360;28;20133;-73
2022/07/21 00:54:57;;;;;;;1.70;1.40;;;19.40;93.70;;;;;;4969262;28;20376;-73
2022/07/21 00:57:23;;;;;;;27.33;2.47;;;19.20;94.00;;;;;;4971232;28;20046;-73
2022/07/21 00:59:49;;;;;;;8.93;1.70;;;19.20;94.10;;;;;;4960384;28;20381;-73
2022/07/21 01:02:15;;;;;;;9.43;1.40;;;19.20;94.30;;;;;;4962106;28;20050;-73
2022/07/21 01:04:41;;;;;;;10.70;1.40;;;19.20;94.10;;;;;;4965763;28;20118;-74
2022/07/21 01:07:07;;;;;;;1.98;1.30;;;19.30;94.00;;;;;;4962354;28;21801;-74
2022/07/21 01:09:33;;;;;;;1.90;1.15;;;19.30;94.10;;;;;;4976923;28;20188;-73
2022/07/21 01:12:00;;;;;;;4.05;1.30;;;19.30;93.60;;;;;;4973634;28;20042;-73
2022/07/21 01:14:26;;;;;;;2.72;1.45;;;19.40;93.10;;;;;;4970120;28;20027;-73
2022/07/21 01:16:52;;;;;;;3.65;1.30;;;19.50;93.40;;;;;;4967998;28;20138;-73
2022/07/21 01:19:17;;;;;;;2.15;1.30;;;19.40;93.80;;;;;;4966825;28;20054;-74
2022/07/21 01:21:46;;;;;;;2.92;1.30;;;19.20;94.20;;;;;;4953831;28;20206;-73
2022/07/21 01:24:12;;;;;;;8.55;1.50;;;19.00;94.50;;;;;;4971522;28;21370;-73
2022/07/21 01:26:49;;;;;;;10.80;2.08;;;19.00;94.80;;;;;;4957013;28;20042;-73
2022/07/21 01:29:16;;;;;;;15.23;2.17;;;18.90;95.20;;;;;;4949048;28;20046;-73
2022/07/21 01:31:45;;;;;;;12.10;2.03;;;18.90;95.30;;;;;;4964700;28;20045;-73
2022/07/21 01:34:11;;;;;;;11.35;1.88;;;18.90;95.50;;;;;;4976442;28;20085;-74
2022/07/21 01:36:37;;;;;;;8.95;1.70;;;18.80;95.70;;;;;;4961523;28;20047;-74
2022/07/21 01:41:51;;;;;;;2.30;1.45;;;18.90;95.40;;;;;;4977344;28;20466;-73
2022/07/21 01:44:17;;;;;;;12.98;1.60;;;18.90;95.50;;;;;;4978338;28;20030;-73
2022/07/21 01:46:48;;;;;;;3.33;1.42;;;18.80;95.60;;;;;;4975050;28;20077;-73
2022/07/21 01:49:16;;;;;;;2.35;1.60;;;18.80;95.50;;;;;;4964450;28;20022;-74
2022/07/21 01:51:42;;;;;;;3.42;1.52;;;18.80;95.40;;;;;;4969016;28;20069;-73
2022/07/21 01:54:10;;;;;;;8.07;1.85;;;18.90;95.30;;;;;;4968214;28;20346;-73
2022/07/21 01:56:37;;;;;;;9.60;1.70;;;18.80;95.40;;;;;;4952595;28;20122;-73
2022/07/21 01:59:04;;;;;;;3.08;1.20;;;18.80;95.30;;;;;;4967119;28;20050;-72
2022/07/21 02:01:30;;;;;;;3.00;1.73;;;18.90;95.20;;;;;;4952093;28;20042;-73
2022/07/21 02:03:58;;;;;;;2.35;1.33;;;18.90;95.10;;;;;;4970213;28;20109;-73
2022/07/21 02:06:24;;;;;;;10.35;2.22;;;18.90;95.00;;;;;;4959544;28;20042;-73
2022/07/21 02:08:50;;;;;;;4.13;1.25;;;18.90;95.30;;;;;;4970569;28;20031;-73
2022/07/21 02:11:17;;;;;;;4.88;1.40;;;18.90;95.60;;;;;;4967799;28;20046;-74
2022/07/21 02:13:43;;;;;;;3.70;1.25;;;18.70;95.70;;;;;;4969271;28;20066;-74
2022/07/21 02:16:09;;;;;;;1.25;1.13;;;18.60;96.00;;;;;;4955380;28;20034;-74
2022/07/21 02:18:35;;;;;;;1.58;1.30;;;18.50;96.10;;;;;;4950004;28;20074;-73
2022/07/21 02:21:01;;;;;;;2.13;1.20;;;18.40;96.30;;;;;;4952243;28;20145;-73
2022/07/21 02:23:27;;;;;;;3.17;1.40;;;18.40;96.40;;;;;;4959338;28;20034;-74
2022/07/21 02:25:53;;;;;;;3.83;1.48;;;18.40;96.80;;;;;;4966690;28;20057;-73
2022/07/21 02:28:20;;;;;;;2.38;1.63;;;18.40;96.40;;;;;;4961921;28;20051;-74
2022/07/21 02:30:46;;;;;;;67.72;5.28;;;18.40;96.30;;;;;;4954296;28;20041;-73
2022/07/21 02:33:12;;;;;;;2.92;1.30;;;18.40;96.40;;;;;;4950560;28;20038;-73
2022/07/21 02:35:38;;;;;;;1.50;1.40;;;18.40;96.20;;;;;;4952652;28;20468;-74
2022/07/21 02:38:04;;;;;;;1.13;1.00;;;18.50;96.20;;;;;;4970361;28;20038;-73
2022/07/21 02:40:30;;;;;;;3.40;1.35;;;18.50;96.10;;;;;;4963308;28;20463;-73
2022/07/21 02:42:56;;;;;;;3.10;1.20;;;18.50;96.00;;;;;;4969663;28;20066;-73
2022/07/21 02:45:21;;;;;;;2.95;1.40;;;18.60;96.00;;;;;;4966345;28;20405;-74
2022/07/21 02:47:54;;;;;;;1.77;1.30;;;18.60;96.00;;;;;;4971494;28;20053;-74
2022/07/21 02:50:22;;;;;;;1.95;1.35;;;18.50;96.20;;;;;;4970929;28;20045;-73
2022/07/21 02:52:49;;;;;;;7.95;1.50;;;18.40;96.40;;;;;;4959487;28;20105;-73
2022/07/21 02:55:15;;;;;;;4.13;1.35;;;18.30;96.50;;;;;;4975197;28;20044;-69
2022/07/21 02:57:41;;;;;;;2.30;1.52;;;18.20;96.60;;;;;;4947366;28;20136;-69
2022/07/21 03:00:09;;;;;;;8.70;1.73;;;18.30;96.70;;;;;;4951237;28;20413;-69
2022/07/21 03:02:35;;;;;;;3.70;1.20;;;18.30;96.70;;;;;;4968487;28;20143;-69
2022/07/21 03:05:02;;;;;;;1.33;1.15;;;18.20;96.80;;;;;;4967561;28;20054;-69
2022/07/21 03:07:27;;;;;;;2.17;1.60;;;18.00;97.20;;;;;;4968105;28;20146;-69
2022/07/21 03:09:53;;;;;;;2.08;1.60;;;18.00;97.40;;;;;;4966901;28;20086;-69
2022/07/21 03:12:19;;;;;;;6.05;1.27;;;18.00;97.20;;;;;;4967522;28;20041;-69
2022/07/21 03:14:44;;;;;;;1.67;1.40;;;18.00;97.50;;;;;;4956016;28;20093;-69
2022/07/21 03:17:10;;;;;;;1.75;1.40;;;18.00;97.30;;;;;;4971108;28;20109;-69
2022/07/21 03:19:36;;;;;;;2.47;1.63;;;18.00;97.30;;;;;;4973246;28;21062;-69
2022/07/21 03:22:02;;;;;;;1.88;1.52;;;17.80;97.50;;;;;;4959224;28;20157;-70
2022/07/21 03:24:29;;;;;;;2.05;1.48;;;17.70;97.90;;;;;;4964521;28;20038;-69
2022/07/21 03:26:56;;;;;;;2.67;1.50;;;17.70;98.00;;;;;;4953775;28;20035;-69
2022/07/21 03:29:22;;;;;;;2.28;1.33;;;17.70;98.10;;;;;;4969572;28;20342;-69
2022/07/21 03:31:48;;;;;;;4.20;1.60;;;17.80;98.00;;;;;;4966467;28;20054;-75
2022/07/21 03:34:13;;;;;;;3.28;1.50;;;17.80;97.90;;;;;;4960256;28;20400;-74
2022/07/21 03:36:39;;;;;;;3.25;1.70;;;17.90;97.90;;;;;;4975447;28;20114;-74
2022/07/21 03:39:05;;;;;;;1.50;1.33;;;17.90;98.00;;;;;;4960521;28;20399;-73
2022/07/21 03:41:30;;;;;;;5.40;1.70;;;17.90;98.00;;;;;;4968117;28;20106;-74
2022/07/21 03:43:56;;;;;;;7.40;1.63;;;18.00;97.90;;;;;;4960517;28;20364;-73
2022/07/21 03:46:22;;;;;;;2.20;1.40;;;18.00;97.90;;;;;;4965575;28;20082;-73
2022/07/21 03:48:48;;;;;;;6.35;1.55;;;18.10;98.00;;;;;;4977297;28;20045;-74
2022/07/21 03:51:14;;;;;;;1.92;1.63;;;18.10;97.90;;;;;;4974771;28;20034;-73
2022/07/21 03:53:39;;;;;;;3.30;1.42;;;18.00;97.70;;;;;;4975856;28;20038;-73
2022/07/21 03:56:05;;;;;;;2.13;1.20;;;18.00;97.70;;;;;;4957610;28;20045;-73
2022/07/21 03:58:31;;;;;;;2.85;1.88;;;17.90;97.90;;;;;;4971202;28;20043;-73
2022/07/21 04:00:56;;;;;;;2.40;1.88;;;17.90;98.20;;;;;;4959181;28;20472;-73
2022/07/21 04:03:22;;;;;;;2.78;1.58;;;17.90;98.50;;;;;;4961668;28;20045;-73
2022/07/21 04:05:47;;;;;;;5.20;1.35;;;18.00;98.50;;;;;;4976162;28;20054;-73
2022/07/21 04:08:14;;;;;;;2.05;1.38;;;18.10;98.40;;;;;;4966478;28;20207;-72
2022/07/21 04:10:41;;;;;;;3.67;1.40;;;18.10;98.40;;;;;;4951072;28;20078;-73
2022/07/21 04:13:11;;;;;;;7.15;1.60;;;18.20;98.30;;;;;;4956131;28;20035;-72
2022/07/21 04:15:37;;;;;;;5.68;1.88;;;18.30;98.60;;;;;;4965027;28;20050;-74
2022/07/21 04:18:04;;;;;;;2.15;1.35;;;18.30;98.20;;;;;;4956552;28;20032;-73
2022/07/21 04:20:31;;;;;;;2.15;1.35;;;18.40;98.00;;;;;;4969234;28;20031;-73
2022/07/21 04:22:56;;;;;;;2.47;1.60;;;18.60;97.60;;;;;;4962923;28;20038;-73
2022/07/21 04:25:22;;;;;;;8.27;1.52;;;18.80;97.70;;;;;;4969290;28;21411;-73
2022/07/21 04:27:49;;;;;;;7.10;1.50;;;18.90;97.60;;;;;;4974108;28;20039;-73
2022/07/21 04:30:17;;;;;;;1.48;1.30;;;18.90;97.90;;;;;;4967549;28;20039;-74
2022/07/21 04:32:43;;;;;;;1.98;1.30;;;19.00;98.10;;;;;;4967912;28;20042;-74
2022/07/21 04:35:09;;;;;;;2.95;1.60;;;19.00;98.30;;;;;;4968012;28;20480;-74
2022/07/21 04:37:35;;;;;;;4.03;1.35;;;19.00;98.10;;;;;;4967658;28;20054;-74
2022/07/21 04:40:03;;;;;;;3.67;1.60;;;19.10;98.10;;;;;;4957933;28;20273;-74
2022/07/21 04:42:28;;;;;;;6.43;1.83;;;19.20;97.90;;;;;;4965803;28;20797;-74
2022/07/21 04:44:54;;;;;;;3.67;1.80;;;19.40;98.30;;;;;;4974707;28;20483;-74
2022/07/21 04:47:20;;;;;;;2.10;1.48;;;19.50;97.50;;;;;;4973429;28;20057;-74
2022/07/21 04:49:45;;;;;;;2.65;1.52;;;19.70;97.50;;;;;;4978047;28;20061;-74
2022/07/21 04:52:11;;;;;;;5.38;1.50;;;19.80;96.90;;;;;;4972360;28;20759;-75
2022/07/21 04:54:37;;;;;;;3.33;1.65;;;20.00;97.30;;;;;;4965365;28;20078;-75
2022/07/21 04:57:04;;;;;;;2.35;1.58;;;20.10;97.10;;;;;;4968022;28;20141;-75
2022/07/21 04:59:30;;;;;;;3.20;1.63;;;20.30;96.70;;;;;;4970281;28;20054;-75
2022/07/21 05:01:56;;;;;;;13.02;2.50;;;20.40;96.20;;;;;;4975295;28;20105;-75
2022/07/21 05:04:22;;;;;;;5.55;1.60;;;20.50;96.00;;;;;;4968997;28;20556;-76
2022/07/21 05:06:47;;;;;;;4.78;1.80;;;20.60;95.70;;;;;;4977899;28;20447;-77
2022/07/21 05:09:13;;;;;;;9.07;1.85;;;20.80;95.60;;;;;;4968102;28;20046;-77
2022/07/21 05:14:24;;;;;;;15.70;2.53;;;21.00;94.10;;;;;;4967221;28;20533;-76
2022/07/21 05:16:50;;;;;;;9.20;1.55;;;21.20;94.30;;;;;;4964216;28;20141;-77
2022/07/21 05:19:15;;;;;;;5.97;1.42;;;21.30;94.40;;;;;;4968116;28;20035;-76
2022/07/21 05:21:41;;;;;;;8.27;1.70;;;21.40;94.50;;;;;;4972581;28;20077;-75
2022/07/21 05:24:07;;;;;;;5.05;1.60;;;21.60;94.50;;;;;;4979565;28;20039;-75
2022/07/21 05:26:32;;;;;;;1.60;1.40;;;21.70;94.10;;;;;;4968480;28;20069;-75
2022/07/21 05:28:58;;;;;;;11.77;1.88;;;21.90;93.80;;;;;;4984342;28;20108;-71
2022/07/21 05:31:24;;;;;;;1.60;1.30;;;22.00;93.60;;;;;;4971026;28;20027;-70
2022/07/21 05:33:49;;;;;;;2.95;1.60;;;22.20;93.70;;;;;;4973405;28;20065;-70
2022/07/21 05:36:16;;;;;;;5.15;1.65;;;22.40;94.00;;;;;;4970364;28;20173;-71
2022/07/21 05:38:41;;;;;;;4.65;1.30;;;22.50;94.00;;;;;;4970038;28;20536;-70
2022/07/21 05:41:07;;;;;;;3.78;1.38;;;22.60;94.30;;;;;;4963819;28;20383;-70
2022/07/21 05:43:33;;;;;;;2.33;1.40;;;22.80;93.90;;;;;;4978970;28;20136;-70
2022/07/21 05:45:58;;;;;;;6.63;2.10;;;22.90;93.60;;;;;;4967179;28;21526;-70
2022/07/21 05:48:24;;;;;;;2.47;1.20;;;23.10;93.50;;;;;;4965249;28;20704;-70
2022/07/21 05:50:50;;;;;;;4.00;1.83;;;23.20;92.30;;;;;;4971866;28;20049;-70
2022/07/21 05:53:15;;;;;;;1.95;1.75;;;23.40;91.20;;;;;;4974748;28;20031;-70
2022/07/21 05:55:41;;;;;;;2.88;1.70;;;23.50;89.30;;;;;;4960353;28;20026;-70
2022/07/21 05:58:07;;;;;;;2.97;1.40;;;23.70;90.00;;;;;;4974921;28;20129;-70
2022/07/21 06:00:33;;;;;;;1.65;1.35;;;23.80;89.80;;;;;;4972098;28;20555;-70
2022/07/21 06:02:58;;;;;;;2.00;1.20;;;24.00;90.20;;;;;;4965393;28;20052;-70
2022/07/21 06:05:24;;;;;;;7.47;2.22;;;24.10;89.30;;;;;;4978438;28;20038;-70
2022/07/21 06:07:49;;;;;;;3.45;1.42;;;24.20;88.40;;;;;;4966078;28;20035;-71
2022/07/21 06:10:15;;;;;;;7.53;1.85;;;24.40;87.70;;;;;;4971404;28;20528;-70
2022/07/21 06:12:42;;;;;;;5.35;1.90;;;24.50;88.50;;;;;;4977513;28;20042;-66
2022/07/21 06:15:08;;;;;;;3.13;1.27;;;24.60;86.90;;;;;;4968451;28;20543;-68
2022/07/21 06:17:45;;;;;;;1.67;1.45;;;24.80;88.00;;;;;;4977277;28;20721;-69
2022/07/21 06:20:12;;;;;;;4.05;1.65;;;24.80;87.50;;;;;;4971431;28;20078;-69
2022/07/21 06:22:37;;;;;;;6.68;1.33;;;24.90;87.30;;;;;;4949203;28;20054;-68
2022/07/21 06:25:04;;;;;;;2.00;1.33;;;25.10;87.60;;;;;;4966182;28;20034;-68
2022/07/21 06:27:31;;;;;;;4.43;1.52;;;25.30;86.00;;;;;;4950131;28;20044;-68
2022/07/21 06:29:58;;;;;;;4.75;1.92;;;25.40;86.60;;;;;;4964988;28;20030;-69
2022/07/21 06:32:24;;;;;;;4.72;2.00;;;25.50;87.60;;;;;;4969027;28;20066;-69
2022/07/21 06:34:50;;;;;;;2.17;1.45;;;25.80;86.30;;;;;;4962001;28;20053;-69
2022/07/21 06:37:16;;;;;;;4.22;1.90;;;26.00;85.60;;;;;;4972015;28;20069;-70
2022/07/21 06:39:42;;;;;;;10.43;2.20;;;26.10;84.50;;;;;;4972171;28;20042;-70
2022/07/21 06:42:08;;;;;;;5.22;1.73;;;26.30;83.50;;;;;;4973889;28;20035;-70
2022/07/21 06:44:33;;;;;;;6.38;2.20;;;26.50;81.90;;;;;;4966415;28;20046;-70
2022/07/21 06:47:04;;;;;;;66.75;4.40;;;26.70;82.40;;;;;;4965484;28;20476;-70
2022/07/21 06:49:33;;;;;;;27.63;2.60;;;26.80;80.10;;;;;;4965284;28;20427;-70
2022/07/21 06:51:59;;;;;;;6.28;2.13;;;27.00;82.10;;;;;;4964375;28;20056;-69
2022/07/21 06:54:24;;;;;;;9.85;2.63;;;27.10;80.70;;;;;;4955611;28;20035;-69
2022/07/21 06:56:50;;;;;;;3.00;2.05;;;27.30;79.60;;;;;;4965078;28;20515;-70
2022/07/21 06:59:15;;;;;;;11.25;2.45;;;27.40;77.80;;;;;;4977664;28;20058;-70
2022/07/21 07:01:41;;;;;;;7.68;2.55;;;27.50;76.20;;;;;;4963592;28;20031;-70
2022/07/21 07:04:08;;;;;;;2.47;2.17;;;27.70;74.60;;;;;;4964996;28;20160;-69
2022/07/21 07:06:33;;;;;;;4.50;2.13;;;27.80;73.60;;;;;;4957798;28;20173;-69
2022/07/21 07:08:59;;;;;;;3.13;2.28;;;27.90;71.10;;;;;;4975196;28;20074;-70
2022/07/21 07:11:25;;;;;;;4.63;2.33;;;28.10;67.90;;;;;;4953853;28;20392;-69
2022/07/21 07:13:50;;;;;;;5.70;2.65;;;28.20;66.10;;;;;;4974760;28;20432;-69
2022/07/21 07:16:16;;;;;;;4.60;2.10;;;28.30;67.00;;;;;;4972081;28;20053;-69
2022/07/21 07:18:42;;;;;;;3.95;2.85;;;28.40;64.80;;;;;;4973049;28;20046;-69
2022/07/21 07:21:07;;;;;;;3.97;2.60;;;28.60;63.40;;;;;;4957573;28;20204;-70
2022/07/21 07:23:33;;;;;;;8.13;2.65;;;28.50;63.30;;;;;;4976185;28;20046;-69
2022/07/21 07:25:59;;;;;;;3.75;2.70;;;28.60;63.60;;;;;;4966914;28;20038;-69
2022/07/21 07:28:24;;;;;;;3.22;2.25;;;28.70;61.20;;;;;;4953581;28;20065;-69
2022/07/21 07:30:50;;;;;;;2.95;2.40;;;28.80;60.20;;;;;;4965631;28;20072;-69
2022/07/21 07:33:16;;;;;;;4.40;2.33;;;28.90;60.10;;;;;;4965496;28;20050;-69
2022/07/21 07:35:41;;;;;;;7.32;2.88;;;29.00;59.30;;;;;;4978789;28;20041;-69
2022/07/21 07:38:07;;;;;;;4.97;2.30;;;29.10;58.90;;;;;;4961463;28;20073;-69
2022/07/21 07:40:33;;;;;;;7.70;2.78;;;29.10;58.80;;;;;;4960141;28;20534;-68
2022/07/21 07:42:59;;;;;;;3.25;2.28;;;29.20;58.00;;;;;;4958316;28;20038;-69
2022/07/21 07:45:26;;;;;;;8.40;2.60;;;29.20;58.50;;;;;;4968766;28;20497;-69
2022/07/21 07:47:51;;;;;;;4.47;2.55;;;29.30;57.80;;;;;;4962642;28;20168;-69
2022/07/21 07:50:17;;;;;;;5.80;2.83;;;29.30;57.60;;;;;;4958761;28;20495;-70
2022/07/21 07:52:44;;;;;;;3.17;2.70;;;29.40;57.80;;;;;;4966575;28;20241;-70
2022/07/21 07:55:12;;;;;;;5.07;2.10;;;29.50;56.70;;;;;;4961935;28;20649;-70
2022/07/21 07:57:40;;;;;;;5.22;2.50;;;29.50;56.40;;;;;;4961421;28;20035;-70
2022/07/21 08:00:09;;;;;;;5.10;2.45;;;29.60;55.70;;;;;;4954901;28;20046;-70
2022/07/21 08:02:35;;;;;;;2.78;2.30;;;29.60;55.80;;;;;;4948556;28;20107;-70
2022/07/21 08:05:01;;;;;;;11.55;3.03;;;29.70;56.10;;;;;;4969821;28;20304;-71
2022/07/21 08:07:26;;;;;;;7.32;2.65;;;29.70;55.30;;;;;;4964268;28;20058;-71
2022/07/21 08:09:52;;;;;;;4.63;2.40;;;29.60;55.20;;;;;;4965611;28;20053;-71
2022/07/21 08:12:17;;;;;;;2.72;2.15;;;29.60;54.60;;;;;;4965067;28;20053;-71
2022/07/21 08:14:43;;;;;;;4.90;2.60;;;29.70;54.40;;;;;;4963229;28;20039;-70
2022/07/21 08:17:09;;;;;;;13.85;2.90;;;29.80;53.80;;;;;;4954094;28;20039;-71
2022/07/21 08:19:35;;;;;;;8.48;2.30;;;29.90;54.30;;;;;;4970236;28;20042;-70
2022/07/21 08:22:01;;;;;;;2.47;2.28;;;30.00;54.40;;;;;;4965525;28;20601;-70
2022/07/21 08:24:27;;;;;;;3.65;2.33;;;30.10;54.40;;;;;;4965649;28;20475;-70
2022/07/21 08:26:53;;;;;;;2.60;2.40;;;30.30;53.20;;;;;;4966328;28;20054;-70
2022/07/21 08:29:18;;;;;;;6.95;2.25;;;30.30;54.20;;;;;;4951826;28;20034;-70
2022/07/21 08:31:44;;;;;;;4.78;2.30;;;30.40;54.60;;;;;;4965939;28;20035;-70
2022/07/21 08:34:10;;;;;;;5.80;2.47;;;30.60;54.50;;;;;;4967983;28;20035;-70
2022/07/21 08:36:36;;;;;;;3.63;2.33;;;30.70;52.80;;;;;;4974549;28;20038;-70
2022/07/21 08:39:03;;;;;;;4.32;2.20;;;30.80;52.80;;;;;;4969261;28;20071;-69
2022/07/21 08:41:31;;;;;;;8.35;2.50;;;30.80;51.70;;;;;;4960035;28;20039;-70
2022/07/21 08:43:56;;;;;;;4.43;2.22;;;30.70;50.40;;;;;;4974811;28;20112;-69
2022/07/21 08:46:23;;;;;;;4.53;2.25;;;30.60;52.60;;;;;;4971376;28;20407;-68
2022/07/21 08:48:50;;;;;;;4.38;2.25;;;30.60;51.50;;;;;;4963974;28;23368;-69
2022/07/21 08:51:16;;;;;;;5.90;2.22;;;30.60;52.00;;;;;;4965902;28;20061;-67
2022/07/21 08:53:46;;;;;;;7.70;1.98;;;30.70;50.80;;;;;;4964384;28;20038;-67
2022/07/21 08:56:12;;;;;;;4.68;2.10;;;30.70;52.00;;;;;;4951875;28;20101;-67
2022/07/21 08:58:38;;;;;;;3.85;2.20;;;30.70;51.00;;;;;;4970935;28;20053;-67
2022/07/21 09:01:04;;;;;;;2.88;2.25;;;30.90;51.40;;;;;;4962706;28;20046;-65
2022/07/21 09:03:29;;;;;;;4.30;2.45;;;31.00;51.20;;;;;;4962284;28;20122;-67
2022/07/21 09:06:04;;;;;;;4.13;2.00;;;31.00;50.00;;;;;;4960517;28;20124;-67
2022/07/21 09:08:36;;;;;;;4.53;1.90;;;31.10;51.30;;;;;;4970038;28;20121;-67
2022/07/21 09:11:23;;;;;;;10.57;2.30;;;31.20;50.10;;;;;;4965190;28;20087;-67
2022/07/21 09:14:05;;;;;;;4.45;2.13;;;31.20;48.90;;;;;;4966924;28;20061;-68
2022/07/21 09:16:34;;;;;;;;;;;31.10;48.80;;;;;;4976187;28;20057;-67
2022/07/21 09:19:00;;;;;;;2.30;1.92;;;31.10;48.30;;;;;;4969363;28;19917;-67
2022/07/21 09:21:26;;;;;;;3.15;1.55;;;31.20;48.50;;;;;;4970302;28;20042;-67
2022/07/21 09:23:52;;;;;;;1.67;1.58;;;31.20;49.20;;;;;;4970278;28;20453;-67
2022/07/21 09:26:17;;;;;;;3.60;2.00;;;31.30;50.40;;;;;;4965012;28;20162;-69
2022/07/21 09:28:43;;;;;;;3.30;2.08;;;31.40;49.20;;;;;;4982420;28;20483;-66
2022/07/21 09:31:11;;;;;;;4.45;2.15;;;31.50;50.20;;;;;;4972874;28;20472;-66
2022/07/21 09:33:44;;;;;;;6.15;2.17;;;31.50;49.70;;;;;;4962079;28;20022;-66
2022/07/21 09:36:28;;;;;;;2.70;1.42;;;31.60;47.60;;;;;;4979266;28;20129;-66
2022/07/21 09:39:03;;;;;;;3.30;1.73;;;31.50;46.20;;;;;;4962922;28;20142;-66
2022/07/21 09:41:30;;;;;;;4.70;1.77;;;31.50;47.10;;;;;;4971428;28;20077;-66
2022/07/21 09:43:57;;;;;;;5.57;1.67;;;31.50;47.30;;;;;;4966073;28;20185;-66
2022/07/21 09:46:29;;;;;;;5.80;1.85;;;31.60;47.30;;;;;;4963094;28;20060;-66
2022/07/21 09:49:01;;;;;;;3.28;2.00;;;31.60;46.00;;;;;;4971107;28;20392;-67
2022/07/21 09:51:34;;;;;;;2.63;1.70;;;31.60;48.30;;;;;;4976524;28;20053;-67
2022/07/21 09:54:08;;;;;;;2.95;1.70;;;31.70;46.60;;;;;;4977196;28;20030;-66
2022/07/21 09:56:37;;;;;;;3.78;2.28;;;31.80;46.00;;;;;;4977672;28;20058;-66
2022/07/21 09:59:04;;;;;;;4.00;1.83;;;31.80;45.40;;;;;;4969398;28;20050;-66
2022/07/21 10:01:30;;;;;;;3.92;1.90;;;31.90;46.90;;;;;;4967694;28;20485;-66
2022/07/21 10:03:57;;;;;;;11.10;1.80;;;32.00;45.60;;;;;;4962562;28;20042;-66
2022/07/21 10:06:27;;;;;;;3.05;1.60;;;32.10;46.10;;;;;;4979403;28;20124;-66
2022/07/21 10:08:53;;;;;;;4.60;1.63;;;32.10;45.40;;;;;;4952567;28;20050;-66
2022/07/21 10:11:19;;;;;;;3.40;1.83;;;32.20;45.70;;;;;;4978405;28;20038;-66
2022/07/21 10:13:45;;;;;;;1.98;1.42;;;32.30;45.60;;;;;;4952523;28;24638;-66
2022/07/21 10:16:12;;;;;;;2.97;1.55;;;32.40;46.20;;;;;;4962850;28;20031;-66
2022/07/21 10:18:52;;;;;;;3.85;1.15;;;32.50;43.60;;;;;;4951717;28;20217;-66
2022/07/21 10:21:33;;;;;;;2.22;1.23;;;32.50;42.30;;;;;;4967836;28;20413;-66
2022/07/21 10:23:59;;;;;;;2.78;0.98;;;32.60;43.70;;;;;;4965322;28;20392;-66
2022/07/21 10:26:25;;;;;;;1.38;1.23;;;32.80;42.70;;;;;;4976110;28;20046;-66
2022/07/21 10:28:50;;;;;;;2.00;1.58;;;32.90;42.50;;;;;;4963278;28;20058;-66
2022/07/21 10:31:22;;;;;;;1.25;1.00;;;33.10;41.00;;;;;;4969465;28;20034;-66
2022/07/21 10:33:48;;;;;;;3.70;1.30;;;33.10;41.70;;;;;;4960414;28;20033;-66
2022/07/21 10:36:26;;;;;;;3.67;1.70;;;33.20;42.20;;;;;;4960165;28;20046;-66
2022/07/21 10:39:16;;;;;;;4.80;1.63;;;33.30;41.10;;;;;;4959231;28;20135;-66
2022/07/21 10:41:45;;;;;;;2.58;1.30;;;33.30;40.70;;;;;;4980968;28;20054;-64
2022/07/21 10:44:30;;;;;;;7.32;1.45;;;33.40;42.00;;;;;;4969517;28;24861;-66
2022/07/21 10:47:07;;;;;;;3.28;1.40;;;33.50;41.20;;;;;;4964619;28;20041;-66
2022/07/21 10:49:55;;;;;;;2.17;1.30;;;33.60;41.60;;;;;;4960006;28;20452;-66
2022/07/21 10:52:38;;;;;;;3.65;1.33;;;33.60;38.90;;;;;;4961838;28;20042;-66
2022/07/21 10:55:28;;;;;;;3.20;1.50;;;33.40;37.80;;;;;;4960392;28;20018;-66
2022/07/21 10:58:25;;;;;;;1.65;1.23;;;33.30;40.70;;;;;;4949656;28;20054;-66
2022/07/21 11:00:53;;;;;;;2.67;1.48;;;33.50;40.70;;;;;;4952318;28;20053;-66
2022/07/21 11:03:29;;;;;;;3.72;1.17;;;33.50;40.70;;;;;;4949902;28;20031;-66
2022/07/21 11:06:09;;;;;;;4.57;1.50;;;33.60;40.20;;;;;;4953203;28;20050;-66
2022/07/21 11:08:47;;;;;;;3.70;1.55;;;33.60;39.30;;;;;;4955852;28;20630;-66
2022/07/21 11:11:27;;;;;;;1.98;1.25;;;33.60;40.30;;;;;;4958357;28;20062;-66
2022/07/21 11:14:15;;;;;;;2.88;1.30;;;33.80;40.70;;;;;;4955585;28;20102;-66
2022/07/21 11:16:49;;;;;;;1.48;1.23;;;33.90;39.50;;;;;;4953601;28;20038;-66
2022/07/21 11:19:41;;;;;;;5.18;1.85;;;34.00;39.00;;;;;;4952936;28;20038;-66
2022/07/21 11:22:17;;;;;;;2.30;1.50;;;34.00;40.30;;;;;;4956020;28;20049;-66
2022/07/21 11:24:45;;;;;;;1.83;1.38;;;34.10;39.50;;;;;;4956157;28;20055;-66
2022/07/21 11:27:17;;;;;;;2.50;1.45;;;34.10;41.20;;;;;;4956788;28;20106;-66
2022/07/21 11:29:45;;;;;;;3.53;1.60;;;34.30;39.30;;;;;;4955104;28;20422;-66
2022/07/21 11:32:11;;;;;;;9.98;1.40;;;34.40;40.00;;;;;;4954221;28;20038;-66
2022/07/21 11:34:45;;;;;;;7.45;1.55;;;34.30;40.20;;;;;;4948393;28;20040;-67
2022/07/21 11:37:13;;;;;;;1.73;1.35;;;34.30;38.30;;;;;;4951815;28;20039;-66
2022/07/21 11:39:39;;;;;;;2.63;1.55;;;34.50;40.50;;;;;;4954931;28;20035;-66
2022/07/21 11:42:15;;;;;;;4.47;1.42;;;34.60;40.50;;;;;;4956715;28;20031;-66
2022/07/21 11:44:42;;;;;;;5.18;1.85;;;34.70;38.40;;;;;;4952579;28;20047;-67
2022/07/21 11:47:11;;;;;;;2.88;1.55;;;34.60;39.20;;;;;;4947546;28;20150;-66
2022/07/21 11:49:37;;;;;;;2.45;1.60;;;34.50;37.10;;;;;;4946020;28;20035;-67
2022/07/21 11:52:06;;;;;;;3.97;1.50;;;34.40;39.60;;;;;;4941086;28;20130;-66
2022/07/21 11:54:53;;;;;;;6.50;1.65;;;34.50;39.20;;;;;;4938982;28;20086;-67
2022/07/21 11:57:20;;;;;;;6.03;1.63;;;34.60;37.00;;;;;;4941579;28;20077;-67
2022/07/21 11:59:46;;;;;;;3.90;1.90;;;34.60;38.70;;;;;;4956946;28;20058;-67
2022/07/21 12:02:25;;;;;;;6.95;1.88;;;34.70;38.30;;;;;;4954357;28;20037;-67
2022/07/21 12:04:57;;;;;;;5.75;1.40;;;34.70;37.60;;;;;;4962731;28;20488;-66
2022/07/21 12:07:42;;;;;;;6.10;1.73;;;34.70;38.50;;;;;;4972740;28;20074;-66
2022/07/21 12:10:10;;;;;;;4.70;1.88;;;34.70;36.80;;;;;;4969086;28;20054;-67
2022/07/21 12:12:40;;;;;;;2.75;1.40;;;34.70;36.50;;;;;;4959563;28;20042;-67
2022/07/21 12:15:31;;;;;;;6.82;1.60;;;34.70;37.60;;;;;;4971092;28;20042;-66
2022/07/21 12:17:58;;;;;;;2.70;1.25;;;34.70;36.40;;;;;;4957634;28;20047;-67
2022/07/21 12:20:33;;;;;;;2.53;1.30;;;34.70;37.50;;;;;;4960742;28;20038;-67
2022/07/21 12:23:18;;;;;;;2.65;1.73;;;34.80;38.00;;;;;;4960356;28;20482;-66
2022/07/21 12:25:44;;;;;;;3.70;1.63;;;35.00;37.70;;;;;;4963043;28;20061;-67
2022/07/21 12:28:10;;;;;;;4.10;1.55;;;35.00;37.40;;;;;;4967712;28;20074;-67
2022/07/21 12:30:44;;;;;;;3.80;1.70;;;35.00;36.00;;;;;;4958588;28;20169;-67
2022/07/21 12:33:15;;;;;;;5.72;1.75;;;34.90;35.30;;;;;;4951457;28;20046;-67
2022/07/21 12:35:56;;;;;;;5.28;1.52;;;34.60;34.40;;;;;;4964349;28;20030;-67
2022/07/21 12:38:21;;;;;;;3.95;1.95;;;34.40;34.80;;;;;;4976260;28;20050;-67
2022/07/21 12:40:55;;;;;;;5.57;1.70;;;34.30;34.40;;;;;;4968991;28;20041;-67
2022/07/21 12:43:25;;;;;;;7.15;1.73;;;34.20;35.50;;;;;;4964854;28;20109;-67
2022/07/21 12:46:17;;;;;;;4.53;1.73;;;34.20;37.60;;;;;;4974213;28;20050;-67
2022/07/21 12:48:44;;;;;;;3.70;1.42;;;34.40;36.90;;;;;;4948212;28;20912;-67
2022/07/21 12:51:18;;;;;;;3.55;1.90;;;34.70;37.30;;;;;;4952038;28;20042;-66
2022/07/21 12:53:47;;;;;;;15.77;2.92;;;34.90;37.60;;;;;;4964721;28;20819;-67
2022/07/21 12:56:25;;;;;;;4.15;2.00;;;35.00;36.10;;;;;;4942170;28;20133;-66